Airfield :
LOGIN :

Register | Disclaimer

   EN    FR    IT 

 










Legend :    VFR   Marginal VFR   IFR   Intensive IFR   Very Intensive IFR
Visi :
Ceiling :
>= 8 km
>= 3000ft
5 to 8 km
1000 to 3000 ft
1500m to 5 km
500 to 1000 ft
800 to 1500m
200 to 500 ft
< 800m
< 200 ft
Symbols :   Thunderstorms  Fog  Heavy snow  Heavy precipitations  Wind > 20 kt
SIGMETs :     Misc.  Thunderstorms  Icing  Turbulence  Mountain Waves  Volcanic Ashes






- Airport Elevation : 1234 ft
- IATA code : LUX


ELLX - Luxembourg Findel

CURRENT METAR :
  • 282220Z 23010KT 5000 -SNRA BKN005 02/01 Q1001 NOSIG

EXPIRED METARs :
  • 282150Z 22009KT 6000 -SNRA BKN006 02/01 Q1001 NOSIG
  • 282120Z 21008KT 180V240 6000 -SNRA BKN008 02/01 Q1001 NOSIG
  • 282050Z 20007KT 9999 BKN012 01/00 Q1002 TEMPO 25015G25KT 2500 -SNRA BKN008
  • 282020Z 21009KT 9999 FEW026 BKN036 01/M00 Q1002 TEMPO 25015G25KT 2500 -SHSNRA BKN008
  • 281950Z 20007KT 170V230 9999 FEW012 SCT038 01/M00 Q1003 TEMPO 25015G25KT 2500 -SHSNRA BKN008

TAF TAF ELLX
Valid from the 28 at 18:00 until the 30 at 00:00 UTC


281700Z 2818/2924 22012KT 9999 BKN017
PROB40
TEMPO 2820/2824 25015G30KT 1200 -SHSNRA BKN006
PROB30
TEMPO 2900/2909 BKN005
BECMG 2909/2911 30012KT
TEMPO 2911/2918 31015G25KT
ATIS : +352 4798 27300
Met : +352 4798 27010 / 27050



MET'MAP, your aeronautical weather chart ! - Copyright ORBIFLY December 2007 - Disclaimer

ORBIFLY MET'MAP TEAM :

Programming & Development : Alexandra Zaïnal
Concept & original design : Baudouin d'Aumeries
Assistance for programming : Marc-Olivier Méhu
Technical & hardware support : Manuel Goepfert

Contact : metmap@orbifly.com




SOURCES & CREDITS :

   NOAA